Victoria, Illinois
Current Conditions -  °F | °C
As of 1:55 AM on Monday 24 Nov 2014 (Local Time) from KGBG Reporting Station
Light Rain Light Rain  
Wind Chill: 32°   Ceiling: 400
Heat Index: 40°   Visibility: 3mi
Dew Point: 40°   Wind: 17mph
Humidity: 99%   Direction: 290°WNW
Pressure: 29.19"   Gusts: 25mph
Location:  41.03°N, 90.1°W
Report Text: KGBG 240755Z AUTO 29015G22KT 3SM -RA OVC004 05/05 A2919 RMK AO2 T00470046
Loading
Personal Weather Stations






























Interactive Weather Map New forecast layout! Learn more

10-Day Weather Forecast

Advertisements
Track Severe Weather on mobile